sensor_id;sensor_type;location;lat;lon;timestamp;pressure;altitude;pressure_sealevel;temperature
41593;BMP180;28026;48.562;14.440;2022-12-08T00:02:23;93159.00;;;8.50
41593;BMP180;28026;48.562;14.440;2022-12-08T00:04:53;93165.00;;;8.50
41593;BMP180;28026;48.562;14.440;2022-12-08T00:07:43;93159.00;;;8.50
41593;BMP180;28026;48.562;14.440;2022-12-08T00:10:32;93166.00;;;8.40
41593;BMP180;28026;48.562;14.440;2022-12-08T00:13:03;93163.00;;;8.40
41593;BMP180;28026;48.562;14.440;2022-12-08T00:15:34;93158.00;;;8.30
41593;BMP180;28026;48.562;14.440;2022-12-08T00:18:05;93156.00;;;8.30
41593;BMP180;28026;48.562;14.440;2022-12-08T00:20:36;93170.00;;;8.30
41593;BMP180;28026;48.562;14.440;2022-12-08T00:23:07;93166.00;;;8.30
41593;BMP180;28026;48.562;14.440;2022-12-08T00:25:38;93156.00;;;8.30
41593;BMP180;28026;48.562;14.440;2022-12-08T00:28:08;93162.00;;;8.30
41593;BMP180;28026;48.562;14.440;2022-12-08T00:30:41;93156.00;;;8.30
41593;BMP180;28026;48.562;14.440;2022-12-08T00:33:12;93146.00;;;8.30
41593;BMP180;28026;48.562;14.440;2022-12-08T00:35:43;93146.00;;;8.30
41593;BMP180;28026;48.562;14.440;2022-12-08T00:38:14;93152.00;;;8.20
41593;BMP180;28026;48.562;14.440;2022-12-08T00:40:46;93133.00;;;8.20
41593;BMP180;28026;48.562;14.440;2022-12-08T00:43:17;93144.00;;;8.20
41593;BMP180;28026;48.562;14.440;2022-12-08T00:45:48;93142.00;;;8.20
41593;BMP180;28026;48.562;14.440;2022-12-08T00:48:19;93153.00;;;8.20
41593;BMP180;28026;48.562;14.440;2022-12-08T00:50:50;93139.00;;;8.20
41593;BMP180;28026;48.562;14.440;2022-12-08T00:53:21;93141.00;;;8.20
41593;BMP180;28026;48.562;14.440;2022-12-08T00:55:52;93136.00;;;8.30
41593;BMP180;28026;48.562;14.440;2022-12-08T00:58:23;93153.00;;;8.20
41593;BMP180;28026;48.562;14.440;2022-12-08T01:00:54;93158.00;;;8.30
41593;BMP180;28026;48.562;14.440;2022-12-08T01:03:24;93154.00;;;8.30
41593;BMP180;28026;48.562;14.440;2022-12-08T01:05:55;93152.00;;;8.30
41593;BMP180;28026;48.562;14.440;2022-12-08T01:08:26;93153.00;;;8.30
41593;BMP180;28026;48.562;14.440;2022-12-08T01:11:09;93145.00;;;8.30
41593;BMP180;28026;48.562;14.440;2022-12-08T01:13:43;93151.00;;;8.30
41593;BMP180;28026;48.562;14.440;2022-12-08T01:16:26;93143.00;;;8.30
41593;BMP180;28026;48.562;14.440;2022-12-08T01:19:00;93140.00;;;8.30
41593;BMP180;28026;48.562;14.440;2022-12-08T01:21:31;93153.00;;;8.30
41593;BMP180;28026;48.562;14.440;2022-12-08T01:24:02;93143.00;;;8.30
41593;BMP180;28026;48.562;14.440;2022-12-08T01:26:34;93138.00;;;8.30
41593;BMP180;28026;48.562;14.440;2022-12-08T01:29:05;93140.00;;;8.20
41593;BMP180;28026;48.562;14.440;2022-12-08T01:31:37;93147.00;;;8.20
41593;BMP180;28026;48.562;14.440;2022-12-08T01:34:10;93137.00;;;8.20
41593;BMP180;28026;48.562;14.440;2022-12-08T01:36:42;93141.00;;;8.20
41593;BMP180;28026;48.562;14.440;2022-12-08T01:39:17;93125.00;;;8.20
41593;BMP180;28026;48.562;14.440;2022-12-08T01:41:49;93135.00;;;8.10
41593;BMP180;28026;48.562;14.440;2022-12-08T01:46:52;93131.00;;;8.20
41593;BMP180;28026;48.562;14.440;2022-12-08T01:49:29;93136.00;;;8.20
41593;BMP180;28026;48.562;14.440;2022-12-08T01:52:11;93129.00;;;8.10
41593;BMP180;28026;48.562;14.440;2022-12-08T01:55:05;93122.00;;;8.10
41593;BMP180;28026;48.562;14.440;2022-12-08T01:58:00;93108.00;;;8.10
41593;BMP180;28026;48.562;14.440;2022-12-08T02:00:36;93113.00;;;8.10
41593;BMP180;28026;48.562;14.440;2022-12-08T02:03:15;93105.00;;;8.00
41593;BMP180;28026;48.562;14.440;2022-12-08T02:05:53;93110.00;;;8.00
41593;BMP180;28026;48.562;14.440;2022-12-08T02:08:25;93097.00;;;8.00
41593;BMP180;28026;48.562;14.440;2022-12-08T02:10:58;93098.00;;;8.00
41593;BMP180;28026;48.562;14.440;2022-12-08T02:13:29;93100.00;;;8.00
41593;BMP180;28026;48.562;14.440;2022-12-08T02:32:06;93082.00;;;7.90
41593;BMP180;28026;48.562;14.440;2022-12-08T02:35:12;93073.00;;;7.90
41593;BMP180;28026;48.562;14.440;2022-12-08T02:38:19;93076.00;;;7.80
41593;BMP180;28026;48.562;14.440;2022-12-08T02:41:23;93075.00;;;7.80
41593;BMP180;28026;48.562;14.440;2022-12-08T02:47:34;93067.00;;;7.70
41593;BMP180;28026;48.562;14.440;2022-12-08T02:50:06;93080.00;;;7.70
41593;BMP180;28026;48.562;14.440;2022-12-08T02:52:44;93071.00;;;7.70
41593;BMP180;28026;48.562;14.440;2022-12-08T02:55:28;93077.00;;;7.70
41593;BMP180;28026;48.562;14.440;2022-12-08T02:58:51;93071.00;;;7.70
41593;BMP180;28026;48.562;14.440;2022-12-08T03:02:04;93071.00;;;7.60
41593;BMP180;28026;48.562;14.440;2022-12-08T03:05:18;93069.00;;;7.60
41593;BMP180;28026;48.562;14.440;2022-12-08T03:11:16;93056.00;;;7.60
41593;BMP180;28026;48.562;14.440;2022-12-08T03:13:59;93056.00;;;7.60
41593;BMP180;28026;48.562;14.440;2022-12-08T03:16:38;93062.00;;;7.60
41593;BMP180;28026;48.562;14.440;2022-12-08T03:19:26;93057.00;;;7.60
41593;BMP180;28026;48.562;14.440;2022-12-08T03:22:04;93048.00;;;7.50
41593;BMP180;28026;48.562;14.440;2022-12-08T03:24:40;93054.00;;;7.50
41593;BMP180;28026;48.562;14.440;2022-12-08T03:27:19;93049.00;;;7.40
41593;BMP180;28026;48.562;14.440;2022-12-08T03:29:56;93049.00;;;7.40
41593;BMP180;28026;48.562;14.440;2022-12-08T03:35:58;93041.00;;;7.20
41593;BMP180;28026;48.562;14.440;2022-12-08T03:38:44;93029.00;;;7.20
41593;BMP180;28026;48.562;14.440;2022-12-08T03:41:15;93035.00;;;7.20
41593;BMP180;28026;48.562;14.440;2022-12-08T03:43:56;93035.00;;;7.10
41593;BMP180;28026;48.562;14.440;2022-12-08T03:46:29;93028.00;;;7.10
41593;BMP180;28026;48.562;14.440;2022-12-08T03:49:00;93020.00;;;7.10
41593;BMP180;28026;48.562;14.440;2022-12-08T03:51:31;93030.00;;;7.10
41593;BMP180;28026;48.562;14.440;2022-12-08T03:54:02;93017.00;;;7.00
41593;BMP180;28026;48.562;14.440;2022-12-08T03:56:37;93021.00;;;7.10
41593;BMP180;28026;48.562;14.440;2022-12-08T03:59:09;93014.00;;;7.10
41593;BMP180;28026;48.562;14.440;2022-12-08T04:01:41;93003.00;;;7.00
41593;BMP180;28026;48.562;14.440;2022-12-08T04:04:12;93014.00;;;7.10
41593;BMP180;28026;48.562;14.440;2022-12-08T04:06:42;93014.00;;;7.10
41593;BMP180;28026;48.562;14.440;2022-12-08T04:09:13;93009.00;;;7.10
41593;BMP180;28026;48.562;14.440;2022-12-08T04:11:44;93008.00;;;7.10
41593;BMP180;28026;48.562;14.440;2022-12-08T04:14:15;92998.00;;;7.00
41593;BMP180;28026;48.562;14.440;2022-12-08T04:16:46;92995.00;;;7.00
41593;BMP180;28026;48.562;14.440;2022-12-08T04:19:17;92997.00;;;7.00
41593;BMP180;28026;48.562;14.440;2022-12-08T04:21:48;92993.00;;;7.00
41593;BMP180;28026;48.562;14.440;2022-12-08T04:24:19;92995.00;;;6.90
41593;BMP180;28026;48.562;14.440;2022-12-08T04:26:50;92994.00;;;7.00
41593;BMP180;28026;48.562;14.440;2022-12-08T04:29:21;92997.00;;;6.90
41593;BMP180;28026;48.562;14.440;2022-12-08T04:31:51;92994.00;;;6.90
41593;BMP180;28026;48.562;14.440;2022-12-08T04:34:22;92997.00;;;6.90
41593;BMP180;28026;48.562;14.440;2022-12-08T04:36:53;92997.00;;;6.90
41593;BMP180;28026;48.562;14.440;2022-12-08T04:39:24;93007.00;;;6.90
41593;BMP180;28026;48.562;14.440;2022-12-08T04:41:55;92997.00;;;6.90
41593;BMP180;28026;48.562;14.440;2022-12-08T04:44:26;92996.00;;;6.80
41593;BMP180;28026;48.562;14.440;2022-12-08T04:46:57;92992.00;;;6.80
41593;BMP180;28026;48.562;14.440;2022-12-08T04:49:28;92996.00;;;6.80
41593;BMP180;28026;48.562;14.440;2022-12-08T04:51:59;92999.00;;;6.80
41593;BMP180;28026;48.562;14.440;2022-12-08T04:54:30;92989.00;;;6.80
41593;BMP180;28026;48.562;14.440;2022-12-08T04:57:01;93001.00;;;6.80
41593;BMP180;28026;48.562;14.440;2022-12-08T04:59:32;92999.00;;;6.90
41593;BMP180;28026;48.562;14.440;2022-12-08T05:02:02;92993.00;;;6.90
41593;BMP180;28026;48.562;14.440;2022-12-08T05:04:33;92990.00;;;6.90
41593;BMP180;28026;48.562;14.440;2022-12-08T05:07:05;92996.00;;;7.00
41593;BMP180;28026;48.562;14.440;2022-12-08T05:09:36;92992.00;;;7.00
41593;BMP180;28026;48.562;14.440;2022-12-08T05:12:07;92985.00;;;7.00
41593;BMP180;28026;48.562;14.440;2022-12-08T05:14:38;92986.00;;;7.00
41593;BMP180;28026;48.562;14.440;2022-12-08T05:17:09;92986.00;;;7.00
41593;BMP180;28026;48.562;14.440;2022-12-08T05:19:40;92987.00;;;7.00
41593;BMP180;28026;48.562;14.440;2022-12-08T05:22:10;92987.00;;;7.00
41593;BMP180;28026;48.562;14.440;2022-12-08T05:24:42;92983.00;;;6.90
41593;BMP180;28026;48.562;14.440;2022-12-08T05:27:13;92988.00;;;6.90
41593;BMP180;28026;48.562;14.440;2022-12-08T05:29:43;92981.00;;;6.90
41593;BMP180;28026;48.562;14.440;2022-12-08T05:32:15;92989.00;;;6.90
41593;BMP180;28026;48.562;14.440;2022-12-08T05:34:46;92985.00;;;6.90
41593;BMP180;28026;48.562;14.440;2022-12-08T05:37:17;92984.00;;;6.80
41593;BMP180;28026;48.562;14.440;2022-12-08T05:39:48;92986.00;;;6.80
41593;BMP180;28026;48.562;14.440;2022-12-08T05:42:19;92984.00;;;6.90
41593;BMP180;28026;48.562;14.440;2022-12-08T05:44:50;92980.00;;;6.90
41593;BMP180;28026;48.562;14.440;2022-12-08T05:47:21;92992.00;;;6.90
41593;BMP180;28026;48.562;14.440;2022-12-08T05:49:52;92979.00;;;6.90
41593;BMP180;28026;48.562;14.440;2022-12-08T05:52:23;92985.00;;;6.90
41593;BMP180;28026;48.562;14.440;2022-12-08T05:54:53;92973.00;;;6.80
41593;BMP180;28026;48.562;14.440;2022-12-08T05:57:25;92981.00;;;6.90
41593;BMP180;28026;48.562;14.440;2022-12-08T05:59:56;92979.00;;;6.90
41593;BMP180;28026;48.562;14.440;2022-12-08T06:02:29;92984.00;;;6.90
41593;BMP180;28026;48.562;14.440;2022-12-08T06:04:59;92985.00;;;6.90
41593;BMP180;28026;48.562;14.440;2022-12-08T06:07:30;92982.00;;;6.90
41593;BMP180;28026;48.562;14.440;2022-12-08T06:10:03;92980.00;;;7.00
41593;BMP180;28026;48.562;14.440;2022-12-08T06:12:35;92986.00;;;7.00
41593;BMP180;28026;48.562;14.440;2022-12-08T06:15:06;92987.00;;;7.00
41593;BMP180;28026;48.562;14.440;2022-12-08T06:17:38;92993.00;;;7.10
41593;BMP180;28026;48.562;14.440;2022-12-08T06:20:09;92986.00;;;7.10
41593;BMP180;28026;48.562;14.440;2022-12-08T06:22:40;92978.00;;;7.10
41593;BMP180;28026;48.562;14.440;2022-12-08T06:25:11;92984.00;;;7.10
41593;BMP180;28026;48.562;14.440;2022-12-08T06:27:42;92979.00;;;7.10
41593;BMP180;28026;48.562;14.440;2022-12-08T06:30:13;92979.00;;;7.10
41593;BMP180;28026;48.562;14.440;2022-12-08T06:32:44;92967.00;;;7.10
41593;BMP180;28026;48.562;14.440;2022-12-08T06:35:15;92982.00;;;7.10
41593;BMP180;28026;48.562;14.440;2022-12-08T06:37:46;92989.00;;;7.00
41593;BMP180;28026;48.562;14.440;2022-12-08T06:40:17;92974.00;;;7.00
41593;BMP180;28026;48.562;14.440;2022-12-08T06:42:49;92979.00;;;7.00
41593;BMP180;28026;48.562;14.440;2022-12-08T06:45:20;92989.00;;;7.00
41593;BMP180;28026;48.562;14.440;2022-12-08T06:47:51;92991.00;;;7.10
41593;BMP180;28026;48.562;14.440;2022-12-08T06:50:22;92980.00;;;7.10
41593;BMP180;28026;48.562;14.440;2022-12-08T06:52:53;92974.00;;;7.20
41593;BMP180;28026;48.562;14.440;2022-12-08T06:55:24;92987.00;;;7.20
41593;BMP180;28026;48.562;14.440;2022-12-08T06:57:55;92987.00;;;7.20
41593;BMP180;28026;48.562;14.440;2022-12-08T07:00:26;92992.00;;;7.20
41593;BMP180;28026;48.562;14.440;2022-12-08T07:02:57;92983.00;;;7.20
41593;BMP180;28026;48.562;14.440;2022-12-08T07:05:28;92977.00;;;7.20
41593;BMP180;28026;48.562;14.440;2022-12-08T07:07:59;92982.00;;;7.20
41593;BMP180;28026;48.562;14.440;2022-12-08T07:10:30;92988.00;;;7.30
41593;BMP180;28026;48.562;14.440;2022-12-08T07:13:01;92984.00;;;7.30
41593;BMP180;28026;48.562;14.440;2022-12-08T07:15:32;92973.00;;;7.30
41593;BMP180;28026;48.562;14.440;2022-12-08T07:18:03;92984.00;;;7.40
41593;BMP180;28026;48.562;14.440;2022-12-08T07:20:34;92989.00;;;7.40
41593;BMP180;28026;48.562;14.440;2022-12-08T07:23:05;92990.00;;;7.50
41593;BMP180;28026;48.562;14.440;2022-12-08T07:25:36;92992.00;;;7.50
41593;BMP180;28026;48.562;14.440;2022-12-08T07:28:09;92992.00;;;7.50
41593;BMP180;28026;48.562;14.440;2022-12-08T07:30:40;92979.00;;;7.50
41593;BMP180;28026;48.562;14.440;2022-12-08T07:33:11;92987.00;;;7.60
41593;BMP180;28026;48.562;14.440;2022-12-08T07:35:42;92992.00;;;7.60
41593;BMP180;28026;48.562;14.440;2022-12-08T07:38:13;92984.00;;;7.60
41593;BMP180;28026;48.562;14.440;2022-12-08T07:40:44;92990.00;;;7.60
41593;BMP180;28026;48.562;14.440;2022-12-08T07:43:15;92985.00;;;7.70
41593;BMP180;28026;48.562;14.440;2022-12-08T07:45:46;92991.00;;;7.70
41593;BMP180;28026;48.562;14.440;2022-12-08T07:48:18;92982.00;;;7.70
41593;BMP180;28026;48.562;14.440;2022-12-08T07:50:49;92969.00;;;7.60
41593;BMP180;28026;48.562;14.440;2022-12-08T07:53:20;92978.00;;;7.60
41593;BMP180;28026;48.562;14.440;2022-12-08T07:55:51;92969.00;;;7.60
41593;BMP180;28026;48.562;14.440;2022-12-08T07:58:22;92981.00;;;7.70
41593;BMP180;28026;48.562;14.440;2022-12-08T08:00:53;92976.00;;;7.80
41593;BMP180;28026;48.562;14.440;2022-12-08T08:03:24;92965.00;;;7.80
41593;BMP180;28026;48.562;14.440;2022-12-08T08:06:04;92972.00;;;8.00
41593;BMP180;28026;48.562;14.440;2022-12-08T08:08:35;92970.00;;;8.10
41593;BMP180;28026;48.562;14.440;2022-12-08T08:11:07;92969.00;;;8.20
41593;BMP180;28026;48.562;14.440;2022-12-08T08:13:38;92971.00;;;8.40
41593;BMP180;28026;48.562;14.440;2022-12-08T08:16:10;92978.00;;;8.70
41593;BMP180;28026;48.562;14.440;2022-12-08T08:18:45;92980.00;;;9.00
41593;BMP180;28026;48.562;14.440;2022-12-08T08:21:20;92986.00;;;9.30
41593;BMP180;28026;48.562;14.440;2022-12-08T08:23:51;92981.00;;;9.60
41593;BMP180;28026;48.562;14.440;2022-12-08T08:26:22;92984.00;;;9.90
41593;BMP180;28026;48.562;14.440;2022-12-08T08:28:53;92984.00;;;10.20
41593;BMP180;28026;48.562;14.440;2022-12-08T08:31:25;92982.00;;;10.50
41593;BMP180;28026;48.562;14.440;2022-12-08T08:33:56;92988.00;;;10.70
41593;BMP180;28026;48.562;14.440;2022-12-08T08:36:27;92980.00;;;10.90
41593;BMP180;28026;48.562;14.440;2022-12-08T08:38:58;92990.00;;;11.00
41593;BMP180;28026;48.562;14.440;2022-12-08T08:41:30;92985.00;;;11.20
41593;BMP180;28026;48.562;14.440;2022-12-08T08:44:01;92992.00;;;11.30
41593;BMP180;28026;48.562;14.440;2022-12-08T08:46:32;92991.00;;;11.50
41593;BMP180;28026;48.562;14.440;2022-12-08T08:49:04;92990.00;;;11.50
41593;BMP180;28026;48.562;14.440;2022-12-08T08:51:35;92987.00;;;11.60
41593;BMP180;28026;48.562;14.440;2022-12-08T08:54:06;92989.00;;;11.80
41593;BMP180;28026;48.562;14.440;2022-12-08T08:56:37;93000.00;;;12.00
41593;BMP180;28026;48.562;14.440;2022-12-08T08:59:08;92993.00;;;12.20
41593;BMP180;28026;48.562;14.440;2022-12-08T09:01:40;92990.00;;;12.30
41593;BMP180;28026;48.562;14.440;2022-12-08T09:04:11;92996.00;;;12.40
41593;BMP180;28026;48.562;14.440;2022-12-08T09:06:42;93004.00;;;12.50
41593;BMP180;28026;48.562;14.440;2022-12-08T09:09:15;93004.00;;;12.50
41593;BMP180;28026;48.562;14.440;2022-12-08T09:11:46;93004.00;;;12.60
41593;BMP180;28026;48.562;14.440;2022-12-08T09:14:17;93002.00;;;12.60
41593;BMP180;28026;48.562;14.440;2022-12-08T09:16:48;93007.00;;;12.80
41593;BMP180;28026;48.562;14.440;2022-12-08T09:19:19;93004.00;;;12.90
41593;BMP180;28026;48.562;14.440;2022-12-08T09:21:50;93001.00;;;13.10
41593;BMP180;28026;48.562;14.440;2022-12-08T09:24:21;92998.00;;;13.30
41593;BMP180;28026;48.562;14.440;2022-12-08T09:26:52;92993.00;;;13.40
41593;BMP180;28026;48.562;14.440;2022-12-08T09:29:23;92992.00;;;13.40
41593;BMP180;28026;48.562;14.440;2022-12-08T09:31:54;92993.00;;;13.40
41593;BMP180;28026;48.562;14.440;2022-12-08T09:34:25;92997.00;;;13.50
41593;BMP180;28026;48.562;14.440;2022-12-08T09:36:56;92997.00;;;13.40
41593;BMP180;28026;48.562;14.440;2022-12-08T09:39:27;92990.00;;;13.50
41593;BMP180;28026;48.562;14.440;2022-12-08T09:42:04;92992.00;;;13.50
41593;BMP180;28026;48.562;14.440;2022-12-08T09:44:46;92985.00;;;13.50
41593;BMP180;28026;48.562;14.440;2022-12-08T09:47:42;92981.00;;;13.40
41593;BMP180;28026;48.562;14.440;2022-12-08T09:50:30;92975.00;;;13.30
41593;BMP180;28026;48.562;14.440;2022-12-08T09:53:14;92974.00;;;13.20
41593;BMP180;28026;48.562;14.440;2022-12-08T09:55:54;92968.00;;;13.20
41593;BMP180;28026;48.562;14.440;2022-12-08T10:01:32;92974.00;;;13.30
41593;BMP180;28026;48.562;14.440;2022-12-08T10:04:36;92957.00;;;13.40
41593;BMP180;28026;48.562;14.440;2022-12-08T10:07:37;92964.00;;;13.40
41593;BMP180;28026;48.562;14.440;2022-12-08T10:13:56;92960.00;;;13.50
41593;BMP180;28026;48.562;14.440;2022-12-08T10:16:41;92954.00;;;13.50
41593;BMP180;28026;48.562;14.440;2022-12-08T10:19:26;92943.00;;;13.50
41593;BMP180;28026;48.562;14.440;2022-12-08T10:21:58;92936.00;;;13.60
41593;BMP180;28026;48.562;14.440;2022-12-08T10:25:09;92948.00;;;13.80
41593;BMP180;28026;48.562;14.440;2022-12-08T10:27:51;92941.00;;;13.80
41593;BMP180;28026;48.562;14.440;2022-12-08T10:30:24;92936.00;;;13.80
41593;BMP180;28026;48.562;14.440;2022-12-08T10:32:55;92927.00;;;13.90
41593;BMP180;28026;48.562;14.440;2022-12-08T10:36:01;92930.00;;;13.90
41593;BMP180;28026;48.562;14.440;2022-12-08T10:38:36;92934.00;;;13.90
41593;BMP180;28026;48.562;14.440;2022-12-08T10:43:58;92933.00;;;13.90
41593;BMP180;28026;48.562;14.440;2022-12-08T10:46:31;92919.00;;;13.70
41593;BMP180;28026;48.562;14.440;2022-12-08T10:51:41;92919.00;;;13.50
41593;BMP180;28026;48.562;14.440;2022-12-08T10:54:32;92916.00;;;13.50
41593;BMP180;28026;48.562;14.440;2022-12-08T10:57:20;92922.00;;;13.60
41593;BMP180;28026;48.562;14.440;2022-12-08T10:59:54;92903.00;;;13.70
41593;BMP180;28026;48.562;14.440;2022-12-08T11:02:25;92907.00;;;13.80
41593;BMP180;28026;48.562;14.440;2022-12-08T11:04:58;92906.00;;;13.90
41593;BMP180;28026;48.562;14.440;2022-12-08T11:07:29;92901.00;;;14.00
41593;BMP180;28026;48.562;14.440;2022-12-08T11:10:00;92903.00;;;14.00
41593;BMP180;28026;48.562;14.440;2022-12-08T11:12:31;92891.00;;;14.00
41593;BMP180;28026;48.562;14.440;2022-12-08T11:15:03;92891.00;;;14.10
41593;BMP180;28026;48.562;14.440;2022-12-08T11:17:37;92885.00;;;14.00
41593;BMP180;28026;48.562;14.440;2022-12-08T11:22:55;92882.00;;;13.80
41593;BMP180;28026;48.562;14.440;2022-12-08T11:25:26;92877.00;;;13.80
41593;BMP180;28026;48.562;14.440;2022-12-08T11:28:00;92872.00;;;13.70
41593;BMP180;28026;48.562;14.440;2022-12-08T11:30:42;92866.00;;;13.60
41593;BMP180;28026;48.562;14.440;2022-12-08T11:33:22;92867.00;;;13.50
41593;BMP180;28026;48.562;14.440;2022-12-08T11:36:03;92868.00;;;13.50
41593;BMP180;28026;48.562;14.440;2022-12-08T11:38:44;92867.00;;;13.60
41593;BMP180;28026;48.562;14.440;2022-12-08T11:41:22;92857.00;;;13.80
41593;BMP180;28026;48.562;14.440;2022-12-08T11:46:56;92867.00;;;14.20
41593;BMP180;28026;48.562;14.440;2022-12-08T11:49:37;92862.00;;;14.20
41593;BMP180;28026;48.562;14.440;2022-12-08T11:52:32;92860.00;;;14.10
41593;BMP180;28026;48.562;14.440;2022-12-08T11:55:26;92858.00;;;14.30
41593;BMP180;28026;48.562;14.440;2022-12-08T12:01:23;92860.00;;;14.70
41593;BMP180;28026;48.562;14.440;2022-12-08T12:04:21;92858.00;;;14.80
41593;BMP180;28026;48.562;14.440;2022-12-08T12:10:50;92840.00;;;14.50
41593;BMP180;28026;48.562;14.440;2022-12-08T12:19:33;92840.00;;;14.70
41593;BMP180;28026;48.562;14.440;2022-12-08T12:22:18;92838.00;;;14.60
41593;BMP180;28026;48.562;14.440;2022-12-08T12:24:52;92832.00;;;14.60
41593;BMP180;28026;48.562;14.440;2022-12-08T12:27:39;92840.00;;;14.40
41593;BMP180;28026;48.562;14.440;2022-12-08T12:30:24;92835.00;;;14.50
41593;BMP180;28026;48.562;14.440;2022-12-08T12:33:01;92827.00;;;14.50
41593;BMP180;28026;48.562;14.440;2022-12-08T12:35:42;92822.00;;;14.80
41593;BMP180;28026;48.562;14.440;2022-12-08T12:38:46;92817.00;;;14.90
41593;BMP180;28026;48.562;14.440;2022-12-08T12:41:55;92817.00;;;14.80
41593;BMP180;28026;48.562;14.440;2022-12-08T12:47:01;92816.00;;;14.60
41593;BMP180;28026;48.562;14.440;2022-12-08T12:57:24;92820.00;;;15.10
41593;BMP180;28026;48.562;14.440;2022-12-08T13:00:16;92826.00;;;15.10
41593;BMP180;28026;48.562;14.440;2022-12-08T13:02:53;92816.00;;;15.10
41593;BMP180;28026;48.562;14.440;2022-12-08T13:05:32;92812.00;;;15.00
41593;BMP180;28026;48.562;14.440;2022-12-08T13:08:25;92812.00;;;14.90
41593;BMP180;28026;48.562;14.440;2022-12-08T13:14:03;92816.00;;;14.60
41593;BMP180;28026;48.562;14.440;2022-12-08T13:16:37;92810.00;;;14.40
41593;BMP180;28026;48.562;14.440;2022-12-08T13:19:15;92809.00;;;14.30
41593;BMP180;28026;48.562;14.440;2022-12-08T13:21:46;92808.00;;;14.10
41593;BMP180;28026;48.562;14.440;2022-12-08T13:29:34;92807.00;;;13.90
41593;BMP180;28026;48.562;14.440;2022-12-08T13:34:43;92812.00;;;13.90
41593;BMP180;28026;48.562;14.440;2022-12-08T13:40:30;92805.00;;;13.40
41593;BMP180;28026;48.562;14.440;2022-12-08T13:46:28;92803.00;;;13.40
41593;BMP180;28026;48.562;14.440;2022-12-08T13:49:05;92801.00;;;13.50
41593;BMP180;28026;48.562;14.440;2022-12-08T13:51:44;92807.00;;;13.50
41593;BMP180;28026;48.562;14.440;2022-12-08T13:54:27;92805.00;;;13.50
41593;BMP180;28026;48.562;14.440;2022-12-08T13:57:22;92805.00;;;13.40
41593;BMP180;28026;48.562;14.440;2022-12-08T14:00:19;92803.00;;;13.40
41593;BMP180;28026;48.562;14.440;2022-12-08T14:02:59;92808.00;;;13.50
41593;BMP180;28026;48.562;14.440;2022-12-08T14:05:41;92804.00;;;13.50
41593;BMP180;28026;48.562;14.440;2022-12-08T14:08:30;92810.00;;;13.60
41593;BMP180;28026;48.562;14.440;2022-12-08T14:11:05;92807.00;;;13.60
41593;BMP180;28026;48.562;14.440;2022-12-08T14:13:37;92801.00;;;13.60
41593;BMP180;28026;48.562;14.440;2022-12-08T14:16:27;92800.00;;;13.60
41593;BMP180;28026;48.562;14.440;2022-12-08T14:19:23;92800.00;;;13.50
41593;BMP180;28026;48.562;14.440;2022-12-08T14:22:16;92809.00;;;13.50
41593;BMP180;28026;48.562;14.440;2022-12-08T14:24:52;92806.00;;;13.40
41593;BMP180;28026;48.562;14.440;2022-12-08T14:27:26;92811.00;;;13.40
41593;BMP180;28026;48.562;14.440;2022-12-08T14:32:59;92808.00;;;13.30
41593;BMP180;28026;48.562;14.440;2022-12-08T14:35:37;92805.00;;;13.30
41593;BMP180;28026;48.562;14.440;2022-12-08T14:38:17;92815.00;;;13.30
41593;BMP180;28026;48.562;14.440;2022-12-08T14:41:04;92816.00;;;13.20
41593;BMP180;28026;48.562;14.440;2022-12-08T14:43:37;92813.00;;;13.10
41593;BMP180;28026;48.562;14.440;2022-12-08T14:46:21;92810.00;;;13.10
41593;BMP180;28026;48.562;14.440;2022-12-08T14:48:52;92810.00;;;13.00
41593;BMP180;28026;48.562;14.440;2022-12-08T14:51:30;92807.00;;;12.90
41593;BMP180;28026;48.562;14.440;2022-12-08T14:54:15;92803.00;;;12.80
41593;BMP180;28026;48.562;14.440;2022-12-08T14:56:52;92806.00;;;12.70
41593;BMP180;28026;48.562;14.440;2022-12-08T14:59:34;92808.00;;;12.60
41593;BMP180;28026;48.562;14.440;2022-12-08T15:05:12;92796.00;;;12.30
41593;BMP180;28026;48.562;14.440;2022-12-08T15:07:53;92799.00;;;12.10
41593;BMP180;28026;48.562;14.440;2022-12-08T15:10:32;92803.00;;;12.00
41593;BMP180;28026;48.562;14.440;2022-12-08T15:15:55;92806.00;;;11.70
41593;BMP180;28026;48.562;14.440;2022-12-08T15:18:36;92805.00;;;11.40
41593;BMP180;28026;48.562;14.440;2022-12-08T15:21:10;92800.00;;;11.20
41593;BMP180;28026;48.562;14.440;2022-12-08T15:23:44;92798.00;;;11.10
41593;BMP180;28026;48.562;14.440;2022-12-08T15:26:26;92794.00;;;10.90
41593;BMP180;28026;48.562;14.440;2022-12-08T15:29:17;92786.00;;;10.70
41593;BMP180;28026;48.562;14.440;2022-12-08T15:31:58;92793.00;;;10.60
41593;BMP180;28026;48.562;14.440;2022-12-08T15:34:30;92795.00;;;10.50
41593;BMP180;28026;48.562;14.440;2022-12-08T15:37:03;92791.00;;;10.40
41593;BMP180;28026;48.562;14.440;2022-12-08T15:39:36;92800.00;;;10.40
41593;BMP180;28026;48.562;14.440;2022-12-08T15:42:11;92802.00;;;10.30
41593;BMP180;28026;48.562;14.440;2022-12-08T15:44:43;92800.00;;;10.20
41593;BMP180;28026;48.562;14.440;2022-12-08T15:47:17;92795.00;;;10.20
41593;BMP180;28026;48.562;14.440;2022-12-08T15:49:51;92804.00;;;10.10
41593;BMP180;28026;48.562;14.440;2022-12-08T15:52:24;92803.00;;;10.10
41593;BMP180;28026;48.562;14.440;2022-12-08T15:54:55;92795.00;;;10.10
41593;BMP180;28026;48.562;14.440;2022-12-08T15:57:29;92796.00;;;10.10
41593;BMP180;28026;48.562;14.440;2022-12-08T16:00:03;92795.00;;;10.10
41593;BMP180;28026;48.562;14.440;2022-12-08T16:02:35;92785.00;;;10.10
41593;BMP180;28026;48.562;14.440;2022-12-08T16:05:06;92793.00;;;10.10
41593;BMP180;28026;48.562;14.440;2022-12-08T16:07:37;92797.00;;;10.10
41593;BMP180;28026;48.562;14.440;2022-12-08T16:10:16;92800.00;;;10.00
41593;BMP180;28026;48.562;14.440;2022-12-08T16:12:53;92794.00;;;10.00
41593;BMP180;28026;48.562;14.440;2022-12-08T16:15:43;92799.00;;;10.00
41593;BMP180;28026;48.562;14.440;2022-12-08T16:18:21;92800.00;;;9.90
41593;BMP180;28026;48.562;14.440;2022-12-08T16:20:55;92804.00;;;9.90
41593;BMP180;28026;48.562;14.440;2022-12-08T16:23:26;92800.00;;;9.80
41593;BMP180;28026;48.562;14.440;2022-12-08T16:25:58;92806.00;;;9.80
41593;BMP180;28026;48.562;14.440;2022-12-08T16:28:29;92800.00;;;9.70
41593;BMP180;28026;48.562;14.440;2022-12-08T16:31:00;92792.00;;;9.70